createdAt,value
2022-10-11T00:00:54.668Z,98610.22
2022-10-11T00:01:57.301Z,98619.78
2022-10-11T00:03:00.966Z,98616.44
2022-10-11T00:04:03.651Z,98611.53
2022-10-11T00:05:06.884Z,98608.19
2022-10-11T00:06:09.702Z,98611.81
2022-10-11T00:07:12.445Z,98606.31
2022-10-11T00:08:16.291Z,98607.75
2022-10-11T00:09:19.002Z,98605.59
2022-10-11T00:10:22.343Z,98608.94
2022-10-11T00:11:25.220Z,98607.63
2022-10-11T00:12:27.999Z,98612.41
2022-10-11T00:13:30.990Z,98598.47
2022-10-11T00:14:34.255Z,98597.75
2022-10-11T00:15:40.581Z,98606.59
2022-10-11T00:16:44.789Z,98605.16
2022-10-11T00:17:47.844Z,98600.78
2022-10-11T00:18:51.003Z,98604.72
2022-10-11T00:19:53.804Z,98603.97
2022-10-11T00:21:08.606Z,98598.34
2022-10-11T00:22:11.311Z,98602.41
2022-10-11T00:23:18.377Z,98600.94
2022-10-11T00:24:21.240Z,98601.50
2022-10-11T00:25:23.935Z,98595.03
2022-10-11T00:26:26.603Z,98601.25
2022-10-11T00:27:29.380Z,98603.28
2022-10-11T00:28:36.411Z,98604.56
2022-10-11T00:29:39.139Z,98605.87
2022-10-11T00:30:43.902Z,98607.56
2022-10-11T00:31:47.017Z,98604.53
2022-10-11T00:32:50.665Z,98600.50
2022-10-11T00:33:58.432Z,98598.59
2022-10-11T00:35:04.996Z,98605.41
2022-10-11T00:36:09.273Z,98601.78
2022-10-11T00:37:12.221Z,98608.03
2022-10-11T00:38:15.287Z,98602.22
2022-10-11T00:39:18.473Z,98604.28
2022-10-11T00:40:21.429Z,98608.91
2022-10-11T00:41:24.274Z,98609.62
2022-10-11T00:42:27.585Z,98609.22
2022-10-11T00:43:32.310Z,98599.34
2022-10-11T00:44:38.412Z,98596.47
2022-10-11T00:45:40.978Z,98602.09
2022-10-11T00:46:56.129Z,98599.22
2022-10-11T00:48:24.294Z,98598.87
2022-10-11T00:49:37.488Z,98588.16
2022-10-11T00:50:40.425Z,98586.59
2022-10-11T00:51:51.822Z,98590.91
2022-10-11T00:53:00.332Z,98590.19
2022-10-11T00:54:04.229Z,98590.19
2022-10-11T00:55:14.627Z,98598.31
2022-10-11T00:56:22.981Z,98589.63
2022-10-11T00:57:29.857Z,98593.97
2022-10-11T00:58:35.224Z,98593.97
2022-10-11T00:59:42.782Z,98595.41
2022-10-11T01:00:45.790Z,98593.81
2022-10-11T01:01:49.392Z,98589.63
2022-10-11T01:02:52.253Z,98590.03
2022-10-11T01:03:56.056Z,98585.13
2022-10-11T01:05:25.063Z,98584.97
2022-10-11T01:06:21.991Z,98589.03
2022-10-11T01:07:28.200Z,98584.09
2022-10-11T01:08:31.868Z,98587.00
2022-10-11T01:09:35.015Z,98593.09
2022-10-11T01:10:37.834Z,98585.69
2022-10-11T01:11:44.306Z,98594.97
2022-10-11T01:13:10.134Z,98594.66
2022-10-11T01:14:41.974Z,98593.03
2022-10-11T01:15:56.960Z,98587.81
2022-10-11T01:17:07.156Z,98584.34
2022-10-11T01:18:27.183Z,98577.25
2022-10-11T01:20:16.309Z,98588.69
2022-10-11T01:21:32.761Z,98581.72
2022-10-11T01:22:53.386Z,98586.78
2022-10-11T01:24:28.248Z,98574.91
2022-10-11T01:25:39.553Z,98591.84
2022-10-11T01:27:25.765Z,98585.31
2022-10-11T01:28:44.688Z,98582.69
2022-10-11T01:30:03.838Z,98590.09
2022-10-11T01:31:21.662Z,98581.94
2022-10-11T01:32:31.922Z,98581.34
2022-10-11T01:33:53.726Z,98578.28
2022-10-11T01:35:10.502Z,98582.34
2022-10-11T01:36:29.692Z,98575.41
2022-10-11T01:37:35.334Z,98579.59
2022-10-11T01:39:12.309Z,98574.69
2022-10-11T01:40:24.057Z,98577.44
2022-10-11T01:41:32.426Z,98569.91
2022-10-11T01:42:39.280Z,98575.53
2022-10-11T01:43:43.074Z,98568.31
2022-10-11T01:44:48.477Z,98564.12
2022-10-11T01:45:55.679Z,98566.31
2022-10-11T01:46:58.465Z,98570.34
2022-10-11T01:48:03.114Z,98563.41
2022-10-11T01:49:06.059Z,98564.84
2022-10-11T01:50:33.592Z,98565.44
2022-10-11T01:51:58.543Z,98569.72
2022-10-11T01:53:26.092Z,98571.62
2022-10-11T01:55:08.561Z,98566.53
2022-10-11T01:56:24.153Z,98568.56
2022-10-11T01:57:45.666Z,98567.53
2022-10-11T01:59:13.522Z,98571.56
2022-10-11T02:00:21.170Z,98561.75
2022-10-11T02:02:00.615Z,98563.75
2022-10-11T02:03:29.530Z,98560.13
2022-10-11T02:04:47.598Z,98561.28
2022-10-11T02:05:56.053Z,98566.78
2022-10-11T02:07:24.712Z,98568.94
2022-10-11T02:08:34.436Z,98569.63
2022-10-11T02:09:42.214Z,98561.63
2022-10-11T02:11:01.247Z,98564.97
2022-10-11T02:12:10.374Z,98560.19
2022-10-11T02:13:34.334Z,98568.03
2022-10-11T02:14:42.298Z,98555.72
2022-10-11T02:15:48.961Z,98563.97
2022-10-11T02:16:57.724Z,98557.12
2022-10-11T02:18:06.688Z,98555.22
2022-10-11T02:19:12.625Z,98558.28
2022-10-11T02:20:21.091Z,98562.88
2022-10-11T02:21:24.878Z,98559.41
2022-10-11T02:22:41.203Z,98561.03
2022-10-11T02:23:56.629Z,98557.12
2022-10-11T02:25:03.148Z,98563.25
2022-10-11T02:26:07.413Z,98563.84
2022-10-11T02:27:12.823Z,98567.06
2022-10-11T02:28:21.400Z,98559.00
2022-10-11T02:29:29.309Z,98571.00
2022-10-11T02:30:33.280Z,98565.09
2022-10-11T02:31:41.339Z,98567.25
2022-10-11T02:32:46.595Z,98566.25
2022-10-11T02:33:58.286Z,98568.47
2022-10-11T02:35:02.734Z,98567.72
2022-10-11T02:36:25.392Z,98569.31
2022-10-11T02:37:32.417Z,98573.50
2022-10-11T02:38:41.649Z,98575.53
2022-10-11T02:39:56.551Z,98569.31
2022-10-11T02:41:11.182Z,98570.63
2022-10-11T02:42:20.059Z,98572.66
2022-10-11T02:43:33.855Z,98570.75
2022-10-11T02:44:43.060Z,98573.38
2022-10-11T02:45:51.416Z,98575.97
2022-10-11T02:46:54.979Z,98570.47
2022-10-11T02:47:58.489Z,98576.37
2022-10-11T02:49:02.487Z,98572.75
2022-10-11T02:50:05.738Z,98578.69
2022-10-11T02:51:17.322Z,98575.03
2022-10-11T02:52:20.529Z,98583.13
2022-10-11T02:53:24.595Z,98578.06
2022-10-11T02:54:27.836Z,98571.84
2022-10-11T02:55:31.240Z,98568.53
2022-10-11T02:56:34.013Z,98577.97
2022-10-11T02:57:36.647Z,98575.22
2022-10-11T02:58:40.259Z,98575.47
2022-10-11T02:59:42.895Z,98571.13
2022-10-11T03:00:45.757Z,98577.59
2022-10-11T03:01:48.547Z,98573.81
2022-10-11T03:02:51.320Z,98573.53
2022-10-11T03:03:54.020Z,98574.31
2022-10-11T03:04:56.685Z,98578.94
2022-10-11T03:06:02.161Z,98577.34
2022-10-11T03:07:05.064Z,98566.78
2022-10-11T03:08:10.175Z,98575.56
2022-10-11T03:09:12.843Z,98562.00
2022-10-11T03:10:15.499Z,98574.13
2022-10-11T03:11:18.297Z,98573.25
2022-10-11T03:12:21.091Z,98565.88
2022-10-11T03:13:24.018Z,98560.25
2022-10-11T03:14:26.904Z,98560.66
2022-10-11T03:15:29.824Z,98566.53
2022-10-11T03:16:32.442Z,98566.94
2022-10-11T03:17:36.979Z,98564.78
2022-10-11T03:18:40.123Z,98567.34
2022-10-11T03:19:42.756Z,98562.75
2022-10-11T03:20:45.422Z,98559.28
2022-10-11T03:21:48.069Z,98566.06
2022-10-11T03:22:50.818Z,98572.84
2022-10-11T03:23:53.514Z,98563.31
2022-10-11T03:25:00.977Z,98562.91
2022-10-11T03:26:06.653Z,98570.00
2022-10-11T03:27:09.565Z,98576.25
2022-10-11T03:28:12.276Z,98579.72
2022-10-11T03:29:14.956Z,98573.50
2022-10-11T03:30:18.463Z,98579.16
2022-10-11T03:31:22.259Z,98580.59
2022-10-11T03:32:25.378Z,98576.41
2022-10-11T03:33:28.054Z,98579.00
2022-10-11T03:34:30.706Z,98579.00
2022-10-11T03:35:35.338Z,98578.78
2022-10-11T03:36:37.904Z,98580.09
2022-10-11T03:37:40.623Z,98580.28
2022-10-11T03:38:43.232Z,98582.28
2022-10-11T03:39:46.152Z,98582.69
2022-10-11T03:41:56.598Z,98588.59
2022-10-11T03:42:59.286Z,98589.88
2022-10-11T03:44:01.950Z,98586.56
2022-10-11T03:45:08.381Z,98594.66
2022-10-11T03:46:11.085Z,98591.19
2022-10-11T03:47:13.700Z,98595.94
2022-10-11T03:48:16.384Z,98593.22
2022-10-11T03:49:19.057Z,98597.25
2022-10-11T03:50:25.449Z,98591.75
2022-10-11T03:51:28.149Z,98591.03
2022-10-11T03:52:30.796Z,98595.22
2022-10-11T03:53:33.389Z,98597.41
2022-10-11T03:54:36.038Z,98593.34
2022-10-11T03:55:40.483Z,98597.00
2022-10-11T03:56:43.370Z,98600.47
2022-10-11T03:57:46.028Z,98595.53
2022-10-11T03:58:49.051Z,98594.06
2022-10-11T03:59:51.736Z,98587.28
2022-10-11T04:00:54.544Z,98606.69
2022-10-11T04:01:57.304Z,98593.09
2022-10-11T04:03:00.433Z,98594.72
2022-10-11T04:04:03.392Z,98598.37
2022-10-11T04:05:06.820Z,98596.53
2022-10-11T04:06:09.554Z,98598.69
2022-10-11T04:07:12.167Z,98604.66
2022-10-11T04:08:15.029Z,98600.19
2022-10-11T04:10:25.764Z,98608.19
2022-10-11T04:11:28.430Z,98607.03
2022-10-11T04:12:31.115Z,98594.78
2022-10-11T04:13:33.764Z,98603.31
2022-10-11T04:14:36.343Z,98598.69
2022-10-11T04:15:39.529Z,98600.88
2022-10-11T04:16:42.584Z,98600.88
2022-10-11T04:17:45.407Z,98605.06
2022-10-11T04:18:48.268Z,98598.28
2022-10-11T04:19:50.855Z,98602.50
2022-10-11T04:20:53.591Z,98593.66
2022-10-11T04:21:56.361Z,98603.50
2022-10-11T04:22:59.209Z,98603.69
2022-10-11T04:24:01.843Z,98600.34
2022-10-11T04:25:05.954Z,98604.72
2022-10-11T04:26:08.937Z,98599.22
2022-10-11T04:27:11.849Z,98602.84
2022-10-11T04:28:14.851Z,98604.59
2022-10-11T04:29:17.684Z,98605.19
2022-10-11T04:30:24.890Z,98603.03
2022-10-11T04:31:27.569Z,98598.84
2022-10-11T04:32:30.261Z,98602.88
2022-10-11T04:33:32.881Z,98600.84
2022-10-11T04:34:35.916Z,98594.94
2022-10-11T04:35:38.831Z,98589.59
2022-10-11T04:36:42.913Z,98597.84
2022-10-11T04:37:48.013Z,98601.16
2022-10-11T04:38:50.683Z,98592.03
2022-10-11T04:39:53.243Z,98592.03
2022-10-11T04:40:56.083Z,98590.72
2022-10-11T04:41:58.996Z,98596.94
2022-10-11T04:43:02.003Z,98592.19
2022-10-11T04:44:04.978Z,98596.41
2022-10-11T04:45:09.124Z,98595.66
2022-10-11T04:46:12.040Z,98593.66
2022-10-11T04:47:14.862Z,98595.66
2022-10-11T04:48:18.239Z,98588.88
2022-10-11T04:49:20.871Z,98593.06
2022-10-11T04:50:23.487Z,98597.97
2022-10-11T04:51:26.611Z,98600.00
2022-10-11T04:52:29.603Z,98595.22
2022-10-11T04:53:32.329Z,98604.78
2022-10-11T04:54:36.321Z,98596.41
2022-10-11T04:55:38.948Z,98595.22
2022-10-11T04:56:41.590Z,98593.38
2022-10-11T04:57:44.172Z,98594.81
2022-10-11T04:58:52.067Z,98601.63
2022-10-11T04:59:54.804Z,98591.50
2022-10-11T05:00:57.967Z,98597.72
2022-10-11T05:02:00.635Z,98594.09
2022-10-11T05:03:03.262Z,98599.28
2022-10-11T05:04:05.883Z,98588.88
2022-10-11T05:05:08.964Z,98597.69
2022-10-11T05:06:12.115Z,98598.97
2022-10-11T05:07:15.143Z,98595.66
2022-10-11T05:08:17.885Z,98600.19
2022-10-11T05:09:21.936Z,98593.06
2022-10-11T05:10:24.575Z,98599.28
2022-10-11T05:11:27.191Z,98597.13
2022-10-11T05:12:33.358Z,98599.16
2022-10-11T05:13:36.505Z,98604.66
2022-10-11T05:14:39.112Z,98602.44
2022-10-11T05:15:41.672Z,98610.69
2022-10-11T05:16:44.417Z,98612.72
2022-10-11T05:17:47.175Z,98612.72
2022-10-11T05:18:50.018Z,98611.44
2022-10-11T05:19:53.067Z,98606.66
2022-10-11T05:21:23.138Z,98613.75
2022-10-11T05:22:25.674Z,98611.00
2022-10-11T05:23:30.363Z,98614.34
2022-10-11T05:24:32.989Z,98615.63
2022-10-11T05:25:35.580Z,98613.03
2022-10-11T05:26:39.433Z,98613.03
2022-10-11T05:27:42.120Z,98611.72
2022-10-11T05:28:44.917Z,98611.91
2022-10-11T05:29:47.668Z,98610.59
2022-10-11T05:30:51.450Z,98616.22
2022-10-11T05:31:54.027Z,98618.44
2022-10-11T05:32:56.532Z,98618.56
2022-10-11T05:34:00.129Z,98620.03
2022-10-11T05:35:02.862Z,98624.94
2022-10-11T05:36:07.521Z,98616.28
2022-10-11T05:37:10.548Z,98626.28
2022-10-11T05:38:13.492Z,98626.44
2022-10-11T05:39:16.175Z,98623.25
2022-10-11T05:40:18.830Z,98628.91
2022-10-11T05:41:21.390Z,98630.34
2022-10-11T05:42:23.958Z,98625.75
2022-10-11T05:43:27.308Z,98630.97
2022-10-11T05:44:29.945Z,98633.12
2022-10-11T05:45:35.734Z,98628.34
2022-10-11T05:46:38.932Z,98634.16
2022-10-11T05:47:41.629Z,98632.13
2022-10-11T05:48:44.233Z,98633.44
2022-10-11T05:49:46.817Z,98637.78
2022-10-11T05:50:49.382Z,98638.34
2022-10-11T05:51:51.937Z,98637.06
2022-10-11T05:52:54.730Z,98645.47
2022-10-11T05:53:57.482Z,98643.44
2022-10-11T05:54:59.976Z,98640.84
2022-10-11T05:56:02.945Z,98650.53
2022-10-11T05:57:05.784Z,98648.50
2022-10-11T05:58:13.228Z,98642.44
2022-10-11T05:59:15.759Z,98656.66
2022-10-11T06:00:18.511Z,98652.72
2022-10-11T06:01:25.895Z,98646.50
2022-10-11T06:02:30.523Z,98648.84
2022-10-11T06:03:33.308Z,98653.75
2022-10-11T06:04:39.540Z,98653.94
2022-10-11T06:05:42.228Z,98658.97
2022-10-11T06:06:45.397Z,98648.69
2022-10-11T06:07:47.992Z,98653.66
2022-10-11T06:08:50.690Z,98648.28
2022-10-11T06:09:53.288Z,98647.13
2022-10-11T06:10:55.922Z,98658.28
2022-10-11T06:11:58.418Z,98653.63
2022-10-11T06:13:07.369Z,98658.00
2022-10-11T06:14:10.069Z,98658.34
2022-10-11T06:15:12.783Z,98657.03
2022-10-11T06:16:16.347Z,98662.53
2022-10-11T06:17:19.309Z,98661.94
2022-10-11T06:18:22.249Z,98657.31
2022-10-11T06:19:25.097Z,98663.69
2022-10-11T06:20:28.117Z,98658.31
2022-10-11T06:21:31.020Z,98663.28
2022-10-11T06:22:33.661Z,98664.84
2022-10-11T06:23:36.429Z,98666.47
2022-10-11T06:24:39.028Z,98668.03
2022-10-11T06:25:41.774Z,98672.25
2022-10-11T06:26:44.475Z,98676.47
2022-10-11T06:27:47.194Z,98668.94
2022-10-11T06:28:49.883Z,98670.38
2022-10-11T06:29:52.657Z,98676.00
2022-10-11T06:30:56.472Z,98672.53
2022-10-11T06:31:59.326Z,98667.91
2022-10-11T06:33:04.821Z,98665.28
2022-10-11T06:34:07.944Z,98670.22
2022-10-11T06:35:10.625Z,98670.22
2022-10-11T06:36:14.914Z,98676.59
2022-10-11T06:37:17.586Z,98674.72
2022-10-11T06:38:21.004Z,98677.75
2022-10-11T06:39:23.693Z,98680.66
2022-10-11T06:40:26.535Z,98678.31
2022-10-11T06:41:30.599Z,98682.69
2022-10-11T06:42:33.235Z,98678.19
2022-10-11T06:43:36.102Z,98680.66
2022-10-11T06:44:39.516Z,98677.59
2022-10-11T06:45:42.322Z,98675.56
2022-10-11T06:47:52.572Z,98673.09
2022-10-11T06:48:56.682Z,98680.78
2022-10-11T06:49:59.388Z,98678.88
2022-10-11T06:51:02.162Z,98680.47
2022-10-11T06:52:05.254Z,98683.53
2022-10-11T06:53:08.217Z,98681.19
2022-10-11T06:54:10.911Z,98684.09
2022-10-11T06:55:13.873Z,98677.41
2022-10-11T06:56:16.542Z,98682.47
2022-10-11T06:57:19.405Z,98686.94
2022-10-11T06:58:22.112Z,98678.38
2022-10-11T06:59:25.012Z,98683.44
2022-10-11T07:00:27.685Z,98687.94
2022-10-11T07:01:30.602Z,98680.66
2022-10-11T07:02:33.493Z,98685.00
2022-10-11T07:03:36.360Z,98681.94
2022-10-11T07:04:39.584Z,98684.25
2022-10-11T07:05:42.144Z,98690.06
2022-10-11T07:06:44.871Z,98688.75
2022-10-11T07:07:47.647Z,98695.00
2022-10-11T07:08:50.500Z,98689.59
2022-10-11T07:09:53.579Z,98687.72
2022-10-11T07:11:01.558Z,98694.25
2022-10-11T07:12:04.336Z,98688.97
2022-10-11T07:13:07.134Z,98700.91
2022-10-11T07:14:10.637Z,98692.75
2022-10-11T07:15:13.504Z,98687.34
2022-10-11T07:16:16.222Z,98692.28
2022-10-11T07:17:18.847Z,98697.94
2022-10-11T07:18:21.675Z,98699.53
2022-10-11T07:19:24.583Z,98698.22
2022-10-11T07:20:27.200Z,98698.94
2022-10-11T07:21:31.994Z,98697.75
2022-10-11T07:22:34.655Z,98692.97
2022-10-11T07:23:37.732Z,98693.69
2022-10-11T07:24:40.742Z,98695.25
2022-10-11T07:25:44.523Z,98694.69
2022-10-11T07:26:47.264Z,98692.91
2022-10-11T07:27:50.289Z,98691.63
2022-10-11T07:28:53.011Z,98693.91
2022-10-11T07:29:55.888Z,98696.06
2022-10-11T07:30:59.364Z,98697.66
2022-10-11T07:32:02.012Z,98700.53
2022-10-11T07:33:05.139Z,98696.72
2022-10-11T07:34:08.611Z,98698.31
2022-10-11T07:35:11.424Z,98697.28
2022-10-11T07:36:15.948Z,98698.84
2022-10-11T07:37:18.849Z,98701.88
2022-10-11T07:38:21.820Z,98704.31
2022-10-11T07:39:24.936Z,98706.63
2022-10-11T07:40:27.885Z,98702.53
2022-10-11T07:41:30.544Z,98698.56
2022-10-11T07:42:33.850Z,98702.19
2022-10-11T07:43:37.540Z,98703.19
2022-10-11T07:44:40.564Z,98707.66
2022-10-11T07:45:47.867Z,98703.69
2022-10-11T07:46:50.554Z,98707.91
2022-10-11T07:47:56.395Z,98704.09
2022-10-11T07:48:59.542Z,98703.50
2022-10-11T07:50:02.239Z,98701.59
2022-10-11T07:51:10.963Z,98708.81
2022-10-11T07:52:13.618Z,98708.94
2022-10-11T07:53:16.231Z,98708.47
2022-10-11T07:54:18.850Z,98708.16
2022-10-11T07:55:21.432Z,98715.25
2022-10-11T07:56:27.113Z,98712.50
2022-10-11T07:57:29.840Z,98706.25
2022-10-11T07:58:33.241Z,98704.34
2022-10-11T07:59:36.119Z,98704.34
2022-10-11T08:01:42.661Z,98703.53
2022-10-11T08:02:45.323Z,98713.03
2022-10-11T08:03:49.169Z,98709.22
2022-10-11T08:04:51.799Z,98710.19
2022-10-11T08:05:54.442Z,98718.84
2022-10-11T08:06:57.049Z,98713.94
2022-10-11T08:07:59.992Z,98719.84
2022-10-11T08:09:02.931Z,98709.16
2022-10-11T08:10:06.932Z,98717.94
2022-10-11T08:11:10.663Z,98715.66
2022-10-11T08:12:13.382Z,98719.41
2022-10-11T08:13:16.120Z,98710.03
2022-10-11T08:14:19.190Z,98723.50
2022-10-11T08:15:22.104Z,98720.84
2022-10-11T08:16:25.307Z,98721.19
2022-10-11T08:17:29.888Z,98714.59
2022-10-11T08:18:33.288Z,98716.88
2022-10-11T08:19:35.864Z,98714.34
2022-10-11T08:20:39.771Z,98723.97
2022-10-11T08:21:42.361Z,98720.56
2022-10-11T08:22:44.946Z,98724.19
2022-10-11T08:23:47.622Z,98715.06
2022-10-11T08:24:50.263Z,98714.34
2022-10-11T08:25:57.386Z,98718.03
2022-10-11T08:27:00.035Z,98720.22
2022-10-11T08:28:02.631Z,98723.59
2022-10-11T08:29:05.439Z,98721.16
2022-10-11T08:30:08.867Z,98726.19
2022-10-11T08:31:16.170Z,98725.97
2022-10-11T08:32:18.877Z,98728.50
2022-10-11T08:33:25.449Z,98718.16
2022-10-11T08:34:28.007Z,98722.69
2022-10-11T08:35:30.706Z,98725.38
2022-10-11T08:36:33.641Z,98719.06
2022-10-11T08:37:36.272Z,98720.97
2022-10-11T08:38:39.844Z,98717.34
2022-10-11T08:39:42.608Z,98729.63
2022-10-11T08:40:55.119Z,98721.66
2022-10-11T08:42:03.303Z,98712.81
2022-10-11T08:43:13.720Z,98722.09
2022-10-11T08:45:10.147Z,98717.88
2022-10-11T08:46:15.414Z,98720.37
2022-10-11T08:47:21.190Z,98717.44
2022-10-11T08:48:33.242Z,98716.78
2022-10-11T08:49:36.950Z,98719.56
2022-10-11T08:50:39.972Z,98721.59
2022-10-11T08:51:43.435Z,98717.62
2022-10-11T08:52:53.228Z,98716.81
2022-10-11T08:54:01.343Z,98716.09
2022-10-11T08:55:16.546Z,98730.94
2022-10-11T08:56:20.929Z,98719.03
2022-10-11T08:57:28.171Z,98716.56
2022-10-11T08:58:59.621Z,98714.72
2022-10-11T09:00:12.974Z,98718.31
2022-10-11T09:01:20.850Z,98711.13
2022-10-11T09:03:02.929Z,98715.66
2022-10-11T09:04:01.047Z,98721.84
2022-10-11T09:05:09.407Z,98724.41
2022-10-11T09:06:17.915Z,98726.91
2022-10-11T09:07:59.777Z,98724.00
2022-10-11T09:09:15.699Z,98717.88
2022-10-11T09:10:37.811Z,98725.16
2022-10-11T09:12:05.680Z,98722.47
2022-10-11T09:13:31.920Z,98711.84
2022-10-11T09:14:40.519Z,98725.12
2022-10-11T09:15:47.045Z,98723.47
2022-10-11T09:17:15.740Z,98725.63
2022-10-11T09:18:41.347Z,98719.91
2022-10-11T09:19:56.227Z,98725.75
2022-10-11T09:21:49.607Z,98724.78
2022-10-11T09:23:11.667Z,98728.69
2022-10-11T09:24:38.992Z,98733.63
2022-10-11T09:25:57.540Z,98736.03
2022-10-11T09:27:15.013Z,98734.06
2022-10-11T09:28:29.289Z,98733.91
2022-10-11T09:29:57.015Z,98735.87
2022-10-11T09:30:59.853Z,98739.38
2022-10-11T09:32:02.921Z,98741.75
2022-10-11T09:33:34.459Z,98734.84
2022-10-11T09:34:42.431Z,98732.12
2022-10-11T09:35:49.521Z,98742.03
2022-10-11T09:37:16.594Z,98737.63
2022-10-11T09:38:26.885Z,98733.53
2022-10-11T09:39:36.609Z,98736.37
2022-10-11T09:40:59.183Z,98741.22
2022-10-11T09:42:12.561Z,98742.75
2022-10-11T09:43:15.405Z,98744.56
2022-10-11T09:44:46.003Z,98739.44
2022-10-11T09:45:49.808Z,98745.09
2022-10-11T09:46:54.939Z,98739.44
2022-10-11T09:48:01.912Z,98741.41
2022-10-11T09:49:09.581Z,98736.31
2022-10-11T09:50:26.287Z,98736.63
2022-10-11T09:51:29.946Z,98739.25
2022-10-11T09:52:33.668Z,98740.38
2022-10-11T09:54:03.009Z,98740.09
2022-10-11T09:55:06.585Z,98742.16
2022-10-11T09:56:09.855Z,98734.88
2022-10-11T09:57:26.412Z,98742.50
2022-10-11T09:58:35.512Z,98744.78
2022-10-11T09:59:38.263Z,98741.34
2022-10-11T10:00:40.898Z,98738.84
2022-10-11T10:01:44.992Z,98739.31
2022-10-11T10:02:50.940Z,98733.81
2022-10-11T10:04:10.231Z,98748.94
2022-10-11T10:05:16.463Z,98740.66
2022-10-11T10:06:28.829Z,98737.16
2022-10-11T10:07:34.035Z,98742.00
2022-10-11T10:08:38.315Z,98739.56
2022-10-11T10:09:40.869Z,98740.00
2022-10-11T10:11:08.534Z,98738.31
2022-10-11T10:12:13.424Z,98735.50
2022-10-11T10:13:24.801Z,98734.03
2022-10-11T10:14:30.440Z,98734.41
2022-10-11T10:15:37.807Z,98734.69
2022-10-11T10:16:40.443Z,98731.88
2022-10-11T10:17:52.180Z,98731.34
2022-10-11T10:19:19.263Z,98728.28
2022-10-11T10:20:25.245Z,98731.81
2022-10-11T10:21:31.825Z,98730.19
2022-10-11T10:22:35.823Z,98733.06
2022-10-11T10:23:38.746Z,98731.62
2022-10-11T10:24:42.739Z,98728.19
2022-10-11T10:25:51.195Z,98728.19
2022-10-11T10:27:24.246Z,98728.56
2022-10-11T10:28:27.878Z,98731.53
2022-10-11T10:29:30.689Z,98735.94
2022-10-11T10:30:35.683Z,98736.94
2022-10-11T10:32:13.509Z,98732.44
2022-10-11T10:33:17.389Z,98724.69
2022-10-11T10:34:36.743Z,98728.56
2022-10-11T10:35:45.623Z,98728.75
2022-10-11T10:36:56.085Z,98736.91
2022-10-11T10:38:01.301Z,98730.97
2022-10-11T10:39:35.308Z,98734.41
2022-10-11T10:40:47.587Z,98735.31
2022-10-11T10:41:50.368Z,98732.75
2022-10-11T10:42:53.106Z,98732.88
2022-10-11T10:44:00.802Z,98735.84
2022-10-11T10:45:12.172Z,98733.88
2022-10-11T10:46:31.168Z,98739.34
2022-10-11T10:47:45.531Z,98731.38
2022-10-11T10:50:27.887Z,98738.78
2022-10-11T10:51:39.208Z,98736.94
2022-10-11T10:53:07.920Z,98735.50
2022-10-11T10:54:44.348Z,98736.00
2022-10-11T10:56:11.139Z,98731.78
2022-10-11T10:57:23.934Z,98731.19
2022-10-11T10:59:04.228Z,98724.34
2022-10-11T11:00:15.127Z,98729.81
2022-10-11T11:01:26.709Z,98728.19
2022-10-11T11:02:51.908Z,98725.63
2022-10-11T11:04:09.598Z,98722.22
2022-10-11T11:05:32.368Z,98725.00
2022-10-11T11:06:58.067Z,98724.91
2022-10-11T11:08:00.763Z,98727.03
2022-10-11T11:09:19.569Z,98725.78
2022-10-11T11:10:42.752Z,98722.38
2022-10-11T11:12:18.846Z,98735.87
2022-10-11T11:13:33.289Z,98724.66
2022-10-11T11:14:54.220Z,98728.06
2022-10-11T11:16:29.144Z,98730.50
2022-10-11T11:17:41.761Z,98736.72
2022-10-11T11:19:05.847Z,98743.28
2022-10-11T11:20:30.051Z,98726.91
2022-10-11T11:21:53.436Z,98726.56
2022-10-11T11:23:27.580Z,98728.19
2022-10-11T11:24:49.073Z,98733.56
2022-10-11T11:26:04.914Z,98720.56
2022-10-11T11:27:27.714Z,98721.53
2022-10-11T11:28:52.555Z,98721.84
2022-10-11T11:29:58.113Z,98727.56
2022-10-11T11:31:10.589Z,98723.59
2022-10-11T11:32:24.299Z,98726.56
2022-10-11T11:33:55.496Z,98723.03
2022-10-11T11:35:03.938Z,98717.56
2022-10-11T11:36:13.583Z,98721.47
2022-10-11T11:37:45.908Z,98712.81
2022-10-11T11:38:58.258Z,98722.53
2022-10-11T11:40:15.688Z,98720.41
2022-10-11T11:41:34.713Z,98718.81
2022-10-11T11:42:46.473Z,98716.84
2022-10-11T11:44:03.192Z,98715.06
2022-10-11T11:45:17.868Z,98721.81
2022-10-11T11:46:29.134Z,98717.59
2022-10-11T11:47:37.940Z,98713.22
2022-10-11T11:48:41.394Z,98708.22
2022-10-11T11:49:55.251Z,98710.72
2022-10-11T11:51:03.952Z,98709.41
2022-10-11T11:52:11.967Z,98721.44
2022-10-11T11:53:19.534Z,98710.38
2022-10-11T11:54:29.736Z,98714.84
2022-10-11T11:55:48.599Z,98716.31
2022-10-11T11:57:02.635Z,98710.81
2022-10-11T11:58:26.172Z,98710.22
2022-10-11T11:59:37.170Z,98709.84
2022-10-11T12:01:04.573Z,98713.06
2022-10-11T12:02:35.295Z,98711.25
2022-10-11T12:03:43.280Z,98706.25
2022-10-11T12:04:48.875Z,98706.56
2022-10-11T12:06:30.921Z,98705.78
2022-10-11T12:07:49.038Z,98698.84
2022-10-11T12:09:17.084Z,98703.16
2022-10-11T12:10:34.222Z,98701.22
2022-10-11T12:11:43.726Z,98702.16
2022-10-11T12:12:46.410Z,98697.75
2022-10-11T12:13:51.431Z,98699.28
2022-10-11T12:15:04.543Z,98693.81
2022-10-11T12:16:09.850Z,98698.00
2022-10-11T12:17:16.297Z,98699.44
2022-10-11T12:18:20.828Z,98702.59
2022-10-11T12:19:23.544Z,98701.22
2022-10-11T12:20:41.059Z,98700.22
2022-10-11T12:21:44.599Z,98697.94
2022-10-11T12:22:50.065Z,98697.16
2022-10-11T12:23:55.113Z,98694.78
2022-10-11T12:25:00.589Z,98689.31
2022-10-11T12:26:28.120Z,98696.06
2022-10-11T12:27:49.360Z,98703.97
2022-10-11T12:29:17.212Z,98694.28
2022-10-11T12:30:47.127Z,98688.81
2022-10-11T12:32:11.471Z,98686.94
2022-10-11T12:33:16.661Z,98685.13
2022-10-11T12:34:49.084Z,98687.28
2022-10-11T12:36:05.701Z,98681.63
2022-10-11T12:37:20.124Z,98679.47
2022-10-11T12:38:35.290Z,98684.25
2022-10-11T12:39:49.328Z,98683.25
2022-10-11T12:40:56.385Z,98685.03
2022-10-11T12:42:20.503Z,98688.97
2022-10-11T12:43:28.665Z,98682.19
2022-10-11T12:44:31.348Z,98682.91
2022-10-11T12:45:37.680Z,98684.41
2022-10-11T12:47:04.642Z,98688.53
2022-10-11T12:48:33.943Z,98685.66
2022-10-11T12:50:16.870Z,98685.47
2022-10-11T12:51:28.400Z,98678.72
2022-10-11T12:52:36.578Z,98681.59
2022-10-11T12:54:21.870Z,98676.13
2022-10-11T12:55:46.137Z,98676.22
2022-10-11T12:57:12.450Z,98676.41
2022-10-11T12:58:50.103Z,98686.47
2022-10-11T12:59:52.920Z,98676.53
2022-10-11T13:00:56.391Z,98671.94
2022-10-11T13:02:00.342Z,98672.84
2022-10-11T13:03:06.176Z,98677.66
2022-10-11T13:04:11.630Z,98674.63
2022-10-11T13:05:31.553Z,98673.38
2022-10-11T13:06:39.012Z,98675.91
2022-10-11T13:07:43.331Z,98673.81
2022-10-11T13:08:55.055Z,98681.09
2022-10-11T13:09:57.916Z,98683.81
2022-10-11T13:11:10.079Z,98681.81
2022-10-11T13:12:19.951Z,98680.38
2022-10-11T13:13:27.036Z,98679.72
2022-10-11T13:14:35.439Z,98677.94
2022-10-11T13:15:38.073Z,98684.75
2022-10-11T13:17:04.738Z,98681.25
2022-10-11T13:18:15.650Z,98683.34
2022-10-11T13:19:23.190Z,98681.00
2022-10-11T13:20:29.836Z,98676.84
2022-10-11T13:21:36.698Z,98687.56
2022-10-11T13:22:40.852Z,98679.38
2022-10-11T13:23:44.665Z,98680.53
2022-10-11T13:24:47.457Z,98682.03
2022-10-11T13:25:50.454Z,98678.78
2022-10-11T13:26:57.250Z,98681.53
2022-10-11T13:28:00.110Z,98681.25
2022-10-11T13:29:02.844Z,98678.19
2022-10-11T13:30:12.342Z,98675.09